createdAt,value
2019-03-20T00:00:24.850Z,18.97
2019-03-20T00:02:57.626Z,17.97
2019-03-20T00:05:30.777Z,19.33
2019-03-20T00:08:03.469Z,18.60
2019-03-20T00:10:36.569Z,18.00
2019-03-20T00:13:10.767Z,17.73
2019-03-20T00:15:43.752Z,18.43
2019-03-20T00:18:16.448Z,17.90
2019-03-20T00:20:50.115Z,18.53
2019-03-20T00:23:22.951Z,18.40
2019-03-20T00:25:56.475Z,17.93
2019-03-20T00:28:29.656Z,18.23
2019-03-20T00:31:03.119Z,19.13
2019-03-20T00:33:35.727Z,19.10
2019-03-20T00:36:08.811Z,20.63
2019-03-20T00:38:41.549Z,19.17
2019-03-20T00:41:13.895Z,19.60
2019-03-20T00:43:46.437Z,20.57
2019-03-20T00:46:19.560Z,20.37
2019-03-20T00:48:52.033Z,20.47
2019-03-20T00:51:24.657Z,19.87
2019-03-20T00:53:57.280Z,22.53
2019-03-20T00:56:30.222Z,19.87
2019-03-20T00:59:02.920Z,21.27
2019-03-20T01:01:35.886Z,20.00
2019-03-20T01:04:08.387Z,19.07
2019-03-20T01:06:41.152Z,19.60
2019-03-20T01:09:14.163Z,19.27
2019-03-20T01:11:46.827Z,19.53
2019-03-20T01:14:19.510Z,18.83
2019-03-20T01:16:53.193Z,19.80
2019-03-20T01:19:25.761Z,19.33
2019-03-20T01:21:58.865Z,18.27
2019-03-20T01:24:31.163Z,19.30
2019-03-20T01:27:03.850Z,18.93
2019-03-20T01:29:36.447Z,21.07
2019-03-20T01:32:09.342Z,19.53
2019-03-20T01:34:42.214Z,19.97
2019-03-20T01:37:14.794Z,20.47
2019-03-20T01:39:47.384Z,17.80
2019-03-20T01:42:20.040Z,19.80
2019-03-20T01:44:52.644Z,19.90
2019-03-20T01:47:25.560Z,19.40
2019-03-20T01:49:58.221Z,19.70
2019-03-20T01:52:30.750Z,20.43
2019-03-20T01:55:03.928Z,20.17
2019-03-20T01:57:37.807Z,21.37
2019-03-20T02:00:10.764Z,20.93
2019-03-20T02:02:43.430Z,21.13
2019-03-20T02:05:16.118Z,20.47
2019-03-20T02:07:48.804Z,20.60
2019-03-20T02:10:22.329Z,21.17
2019-03-20T02:12:55.058Z,21.70
2019-03-20T02:15:38.084Z,20.50
2019-03-20T02:18:02.005Z,20.57
2019-03-20T02:20:34.650Z,22.43
2019-03-20T02:23:07.341Z,22.33
2019-03-20T02:25:39.995Z,21.30
2019-03-20T02:28:14.213Z,21.20
2019-03-20T02:30:46.792Z,21.80
2019-03-20T02:33:19.645Z,21.70
2019-03-20T02:35:52.487Z,22.90
2019-03-20T02:38:25.338Z,22.67
2019-03-20T02:40:57.721Z,22.80
2019-03-20T02:43:30.704Z,22.30
2019-03-20T02:46:03.405Z,22.13
2019-03-20T02:48:36.275Z,21.83
2019-03-20T02:51:08.829Z,22.30
2019-03-20T02:53:41.190Z,23.07
2019-03-20T02:56:13.805Z,23.40
2019-03-20T02:58:46.445Z,22.20
2019-03-20T03:01:22.898Z,21.77
2019-03-20T03:03:57.485Z,23.73
2019-03-20T03:06:30.115Z,22.50
2019-03-20T03:09:03.332Z,23.13
2019-03-20T03:11:35.908Z,23.43
2019-03-20T03:14:08.586Z,22.10
2019-03-20T03:16:41.508Z,21.50
2019-03-20T03:19:13.990Z,20.97
2019-03-20T03:21:46.784Z,21.57
2019-03-20T03:24:19.513Z,21.80
2019-03-20T03:26:52.048Z,20.87
2019-03-20T03:29:24.621Z,21.63
2019-03-20T03:31:57.382Z,21.03
2019-03-20T03:34:29.871Z,21.03
2019-03-20T03:37:02.609Z,21.23
2019-03-20T03:39:35.163Z,21.63
2019-03-20T03:42:07.847Z,21.50
2019-03-20T03:44:40.794Z,20.77
2019-03-20T03:47:13.477Z,22.20
2019-03-20T03:49:46.227Z,23.17
2019-03-20T03:52:19.267Z,23.03
2019-03-20T03:54:52.066Z,23.00
2019-03-20T03:57:25.134Z,21.00
2019-03-20T03:59:57.521Z,21.93
2019-03-20T04:02:30.166Z,22.57
2019-03-20T04:05:02.957Z,21.73
2019-03-20T04:07:35.829Z,22.53
2019-03-20T04:10:08.309Z,23.03
2019-03-20T04:12:40.756Z,22.50
2019-03-20T04:15:14.432Z,23.73
2019-03-20T04:17:48.012Z,22.97
2019-03-20T04:20:20.527Z,22.30
2019-03-20T04:22:53.013Z,22.60
2019-03-20T04:25:25.662Z,22.23
2019-03-20T04:27:59.436Z,23.67
2019-03-20T04:30:31.965Z,22.83
2019-03-20T04:33:04.435Z,24.80
2019-03-20T04:35:38.070Z,25.13
2019-03-20T04:38:10.978Z,24.87
2019-03-20T04:40:43.973Z,24.73
2019-03-20T04:43:17.459Z,24.07
2019-03-20T04:45:50.200Z,26.13
2019-03-20T04:48:22.658Z,24.93
2019-03-20T04:50:55.045Z,25.93
2019-03-20T04:53:27.375Z,25.83
2019-03-20T04:55:59.769Z,27.77
2019-03-20T04:58:32.453Z,27.40
2019-03-20T05:01:05.123Z,27.27
2019-03-20T05:03:37.630Z,27.60
2019-03-20T05:06:10.360Z,28.10
2019-03-20T05:08:43.223Z,28.83
2019-03-20T05:11:15.924Z,28.30
2019-03-20T05:13:48.659Z,28.70
2019-03-20T05:16:21.506Z,28.93
2019-03-20T05:18:54.012Z,26.67
2019-03-20T05:21:26.896Z,27.73
2019-03-20T05:23:59.480Z,27.20
2019-03-20T05:26:33.217Z,28.30
2019-03-20T05:29:06.235Z,28.77
2019-03-20T05:31:40.247Z,29.10
2019-03-20T05:34:12.680Z,28.63
2019-03-20T05:36:45.598Z,27.63
2019-03-20T05:39:18.059Z,28.10
2019-03-20T05:41:51.066Z,29.07
2019-03-20T05:44:23.665Z,30.20
2019-03-20T05:46:56.372Z,30.60
2019-03-20T05:49:29.087Z,33.10
2019-03-20T05:52:01.423Z,30.97
2019-03-20T05:54:33.845Z,31.43
2019-03-20T05:57:06.215Z,31.20
2019-03-20T05:59:38.823Z,33.77
2019-03-20T06:02:11.397Z,34.80
2019-03-20T06:04:43.789Z,34.93
2019-03-20T06:07:21.678Z,32.67
2019-03-20T06:09:50.867Z,35.43
2019-03-20T06:12:23.379Z,36.53
2019-03-20T06:14:55.788Z,37.23
2019-03-20T06:17:30.778Z,38.87
2019-03-20T06:20:03.124Z,35.83
2019-03-20T06:22:35.608Z,39.50
2019-03-20T06:25:07.974Z,40.27
2019-03-20T06:27:40.383Z,39.37
2019-03-20T06:30:13.473Z,41.40
2019-03-20T06:32:46.269Z,40.27
2019-03-20T06:35:19.068Z,41.93
2019-03-20T06:37:51.912Z,42.07
2019-03-20T06:40:24.401Z,40.50
2019-03-20T06:42:56.655Z,42.23
2019-03-20T06:45:29.281Z,41.57
2019-03-20T06:48:01.420Z,43.50
2019-03-20T06:50:33.791Z,43.13
2019-03-20T06:53:06.303Z,43.93
2019-03-20T06:55:38.770Z,43.63
2019-03-20T06:58:11.647Z,44.30
2019-03-20T07:00:43.929Z,45.13
2019-03-20T07:03:16.180Z,45.00
2019-03-20T07:05:48.679Z,48.00
2019-03-20T07:08:21.091Z,45.53
2019-03-20T07:10:54.977Z,45.90
2019-03-20T07:13:27.552Z,47.43
2019-03-20T07:16:00.034Z,48.83
2019-03-20T07:18:32.271Z,49.27
2019-03-20T07:21:05.691Z,46.37
2019-03-20T07:23:38.481Z,48.60
2019-03-20T07:26:11.801Z,49.50
2019-03-20T07:28:44.242Z,47.83
2019-03-20T07:31:17.612Z,49.77
2019-03-20T07:33:50.423Z,48.53
2019-03-20T07:36:22.792Z,50.47
2019-03-20T07:38:55.102Z,47.53
2019-03-20T07:41:27.361Z,46.93
2019-03-20T07:43:59.978Z,48.73
2019-03-20T07:46:32.489Z,48.53
2019-03-20T07:49:04.874Z,44.73
2019-03-20T07:51:38.256Z,49.23
2019-03-20T07:54:11.105Z,47.00
2019-03-20T07:56:45.838Z,49.33
2019-03-20T07:59:18.272Z,48.10
2019-03-20T08:01:50.845Z,46.17
2019-03-20T08:04:23.122Z,48.63
2019-03-20T08:06:55.697Z,47.17
2019-03-20T08:09:28.573Z,46.03
2019-03-20T08:12:02.920Z,47.07
2019-03-20T08:14:35.359Z,45.10
2019-03-20T08:17:07.727Z,43.87
2019-03-20T08:19:40.188Z,47.47
2019-03-20T08:22:14.828Z,45.47
2019-03-20T08:24:47.095Z,44.30
2019-03-20T08:27:19.836Z,46.00
2019-03-20T08:29:53.198Z,43.23
2019-03-20T08:32:25.505Z,45.73
2019-03-20T08:34:58.126Z,42.83
2019-03-20T08:37:31.960Z,43.60
2019-03-20T08:40:05.691Z,45.67
2019-03-20T08:42:38.990Z,41.30
2019-03-20T08:45:11.393Z,42.87
2019-03-20T08:47:44.277Z,42.87
2019-03-20T08:50:16.691Z,40.87
2019-03-20T08:52:49.013Z,41.63
2019-03-20T08:55:21.499Z,40.57
2019-03-20T08:57:54.018Z,39.10
2019-03-20T09:00:26.443Z,43.30
2019-03-20T09:02:59.230Z,41.80
2019-03-20T09:05:31.574Z,41.90
2019-03-20T09:08:04.794Z,42.13
2019-03-20T09:10:37.173Z,43.73
2019-03-20T09:13:09.543Z,43.67
2019-03-20T09:15:41.854Z,41.60
2019-03-20T09:18:14.228Z,42.00
2019-03-20T09:20:46.486Z,41.23
2019-03-20T09:23:18.790Z,40.80
2019-03-20T09:25:51.145Z,42.47
2019-03-20T09:28:23.431Z,43.23
2019-03-20T09:30:56.240Z,41.27
2019-03-20T09:33:29.645Z,41.13
2019-03-20T09:36:01.931Z,41.80
2019-03-20T09:38:43.063Z,41.03
2019-03-20T09:41:09.660Z,42.60
2019-03-20T09:43:41.932Z,40.97
2019-03-20T09:46:14.161Z,37.07
2019-03-20T09:48:46.405Z,37.27
2019-03-20T09:51:18.704Z,39.27
2019-03-20T09:53:50.815Z,38.43
2019-03-20T09:56:23.114Z,37.53
2019-03-20T09:58:55.437Z,37.80
2019-03-20T10:01:27.783Z,36.53
2019-03-20T10:04:00.065Z,37.77
2019-03-20T10:06:32.362Z,36.60
2019-03-20T10:09:04.653Z,38.40
2019-03-20T10:11:37.040Z,35.87
2019-03-20T10:14:09.549Z,35.57
2019-03-20T10:16:42.195Z,34.73
2019-03-20T10:19:14.539Z,33.70
2019-03-20T10:21:46.765Z,34.57
2019-03-20T10:24:19.273Z,35.37
2019-03-20T10:26:51.400Z,35.27
2019-03-20T10:29:25.264Z,36.17
2019-03-20T10:31:57.495Z,36.87
2019-03-20T10:34:39.204Z,34.97
2019-03-20T10:37:03.906Z,36.57
2019-03-20T10:39:36.191Z,34.57
2019-03-20T10:42:10.475Z,34.63
2019-03-20T10:44:42.733Z,35.90
2019-03-20T10:47:14.909Z,37.07
2019-03-20T10:49:47.571Z,35.70
2019-03-20T10:52:19.887Z,34.00
2019-03-20T10:54:52.406Z,35.23
2019-03-20T10:57:24.734Z,34.60
2019-03-20T10:59:59.367Z,34.77
2019-03-20T11:02:31.728Z,34.23
2019-03-20T11:05:04.085Z,32.23
2019-03-20T11:07:37.622Z,33.23
2019-03-20T11:10:10.033Z,29.87
2019-03-20T11:12:42.261Z,33.70
2019-03-20T11:15:14.498Z,32.23
2019-03-20T11:17:46.938Z,32.87
2019-03-20T11:20:19.242Z,30.70
2019-03-20T11:22:51.623Z,32.80
2019-03-20T11:25:23.854Z,32.40
2019-03-20T11:27:56.183Z,31.10
2019-03-20T11:30:28.569Z,29.73
2019-03-20T11:33:00.819Z,32.33
2019-03-20T11:35:33.172Z,31.70
2019-03-20T11:38:05.425Z,34.40
2019-03-20T11:40:37.715Z,30.67
2019-03-20T11:43:10.138Z,32.77
2019-03-20T11:45:42.375Z,35.03
2019-03-20T11:48:14.712Z,32.87
2019-03-20T11:50:47.068Z,32.77
2019-03-20T11:53:19.347Z,33.57
2019-03-20T11:55:51.630Z,33.70
2019-03-20T11:58:23.889Z,33.83
2019-03-20T12:00:56.303Z,34.10
2019-03-20T12:03:28.552Z,34.90
2019-03-20T12:06:02.812Z,32.13
2019-03-20T12:08:35.246Z,33.57
2019-03-20T12:11:07.469Z,33.77
2019-03-20T12:13:40.023Z,33.90
2019-03-20T12:16:12.376Z,32.27
2019-03-20T12:18:44.524Z,34.13
2019-03-20T12:21:16.972Z,36.37
2019-03-20T12:23:49.344Z,33.50
2019-03-20T12:26:21.888Z,32.53
2019-03-20T12:28:54.345Z,31.37
2019-03-20T12:31:26.856Z,32.50
2019-03-20T12:33:59.102Z,32.63
2019-03-20T12:36:31.393Z,32.67
2019-03-20T12:39:03.766Z,30.90
2019-03-20T12:41:37.344Z,30.33
2019-03-20T12:44:09.602Z,32.60
2019-03-20T12:46:42.084Z,32.93
2019-03-20T12:49:14.604Z,34.00
2019-03-20T12:51:47.195Z,31.17
2019-03-20T12:54:19.628Z,31.77
2019-03-20T12:56:51.880Z,32.73
2019-03-20T12:59:24.234Z,33.43
2019-03-20T13:01:56.718Z,33.10
2019-03-20T13:04:29.097Z,33.47
2019-03-20T13:07:02.092Z,30.80
2019-03-20T13:09:34.434Z,32.47
2019-03-20T13:12:06.791Z,33.63
2019-03-20T13:14:39.102Z,32.10
2019-03-20T13:17:11.563Z,31.40
2019-03-20T13:19:43.923Z,33.17
2019-03-20T13:22:16.342Z,31.40
2019-03-20T13:24:49.067Z,30.70
2019-03-20T13:27:21.426Z,33.97
2019-03-20T13:29:53.749Z,30.90
2019-03-20T13:32:26.278Z,32.70
2019-03-20T13:34:58.570Z,30.90
2019-03-20T13:37:30.827Z,28.47
2019-03-20T13:40:02.919Z,29.23
2019-03-20T13:42:35.351Z,29.23
2019-03-20T13:45:07.665Z,26.73
2019-03-20T13:47:40.006Z,26.43
2019-03-20T13:50:12.565Z,25.23
2019-03-20T13:52:45.235Z,25.80
2019-03-20T13:55:17.872Z,23.07
2019-03-20T13:57:50.660Z,25.10
2019-03-20T14:00:23.030Z,24.10
2019-03-20T14:02:55.668Z,22.73
2019-03-20T14:05:27.953Z,22.57
2019-03-20T14:08:00.189Z,21.83
2019-03-20T14:10:32.553Z,19.60
2019-03-20T14:13:04.870Z,19.10
2019-03-20T14:15:37.205Z,20.97
2019-03-20T14:18:09.475Z,22.40
2019-03-20T14:20:41.979Z,21.37
2019-03-20T14:23:14.250Z,22.53
2019-03-20T14:25:46.357Z,21.60
2019-03-20T14:28:18.673Z,22.77
2019-03-20T14:30:50.943Z,19.87
2019-03-20T14:33:23.300Z,21.37
2019-03-20T14:35:55.625Z,21.73
2019-03-20T14:38:28.204Z,21.33
2019-03-20T14:41:00.683Z,23.17
2019-03-20T14:43:32.906Z,25.50
2019-03-20T14:46:07.397Z,25.53
2019-03-20T14:48:39.832Z,24.67
2019-03-20T14:51:12.010Z,23.23
2019-03-20T14:53:44.370Z,21.07
2019-03-20T14:56:18.298Z,20.37
2019-03-20T14:58:50.712Z,23.00
2019-03-20T15:01:23.125Z,21.43
2019-03-20T15:03:55.685Z,20.80
2019-03-20T15:06:27.969Z,19.90
2019-03-20T15:09:00.232Z,22.03
2019-03-20T15:11:32.285Z,22.17
2019-03-20T15:14:04.510Z,22.03
2019-03-20T15:16:36.900Z,19.77
2019-03-20T15:19:09.223Z,20.93
2019-03-20T15:21:43.783Z,19.53
2019-03-20T15:24:16.083Z,18.27
2019-03-20T15:26:48.341Z,19.13
2019-03-20T15:29:20.867Z,18.87
2019-03-20T15:31:53.761Z,17.10
2019-03-20T15:34:26.183Z,17.13
2019-03-20T15:36:58.510Z,16.33
2019-03-20T15:39:30.946Z,15.57
2019-03-20T15:42:03.401Z,15.63
2019-03-20T15:44:35.984Z,15.60
2019-03-20T15:47:08.355Z,14.87
2019-03-20T15:49:40.799Z,15.37
2019-03-20T15:52:13.288Z,13.73
2019-03-20T15:54:45.915Z,13.83
2019-03-20T15:57:18.362Z,13.50
2019-03-20T15:59:52.693Z,13.33
2019-03-20T16:02:25.235Z,13.37
2019-03-20T16:04:57.631Z,13.87
2019-03-20T16:07:29.928Z,14.33
2019-03-20T16:10:02.349Z,14.30
2019-03-20T16:12:34.802Z,14.47
2019-03-20T16:15:07.280Z,13.97
2019-03-20T16:17:39.698Z,14.93
2019-03-20T16:20:11.911Z,13.90
2019-03-20T16:22:44.274Z,15.47
2019-03-20T16:25:16.554Z,14.73
2019-03-20T16:27:49.053Z,15.83
2019-03-20T16:30:21.390Z,16.10
2019-03-20T16:32:56.353Z,14.57
2019-03-20T16:35:28.414Z,16.00
2019-03-20T16:38:01.047Z,15.83
2019-03-20T16:40:33.883Z,15.87
2019-03-20T16:43:06.529Z,15.23
2019-03-20T16:45:39.045Z,14.73
2019-03-20T16:48:11.481Z,15.50
2019-03-20T16:50:44.258Z,15.60
2019-03-20T16:53:17.691Z,14.97
2019-03-20T16:55:50.129Z,14.80
2019-03-20T16:58:22.611Z,14.33
2019-03-20T17:00:55.131Z,16.17
2019-03-20T17:03:27.488Z,15.70
2019-03-20T17:05:59.993Z,15.43
2019-03-20T17:08:32.871Z,16.00
2019-03-20T17:11:05.362Z,16.40
2019-03-20T17:13:38.010Z,17.07
2019-03-20T17:16:10.471Z,15.87
2019-03-20T17:18:43.851Z,16.13
2019-03-20T17:21:17.748Z,15.27
2019-03-20T17:23:50.029Z,15.43
2019-03-20T17:26:22.295Z,17.10
2019-03-20T17:28:54.529Z,15.77
2019-03-20T17:31:28.368Z,15.07
2019-03-20T17:34:00.930Z,15.30
2019-03-20T17:36:33.750Z,15.87
2019-03-20T17:39:08.340Z,14.53
2019-03-20T17:41:40.790Z,14.73
2019-03-20T17:44:13.046Z,14.07
2019-03-20T17:46:45.285Z,14.20
2019-03-20T17:49:17.530Z,14.27
2019-03-20T17:51:49.814Z,14.13
2019-03-20T17:54:22.079Z,12.93
2019-03-20T17:56:54.354Z,13.23
2019-03-20T17:59:27.016Z,13.90
2019-03-20T18:01:59.304Z,14.53
2019-03-20T18:04:32.501Z,14.33
2019-03-20T18:07:04.833Z,15.03
2019-03-20T18:09:37.343Z,14.90
2019-03-20T18:12:09.665Z,14.27
2019-03-20T18:14:42.187Z,15.87
2019-03-20T18:17:14.852Z,14.30
2019-03-20T18:19:47.019Z,14.87
2019-03-20T18:22:20.998Z,15.60
2019-03-20T18:24:53.658Z,16.57
2019-03-20T18:27:29.041Z,17.50
2019-03-20T18:30:02.854Z,16.17
2019-03-20T18:32:36.121Z,17.13
2019-03-20T18:35:09.862Z,18.77
2019-03-20T18:37:42.224Z,16.67
2019-03-20T18:40:14.585Z,18.30
2019-03-20T18:42:47.298Z,17.33
2019-03-20T18:45:19.672Z,17.83
2019-03-20T18:47:52.333Z,19.90
2019-03-20T18:50:24.731Z,19.43
2019-03-20T18:52:57.080Z,21.13
2019-03-20T18:55:29.887Z,19.87
2019-03-20T18:58:02.296Z,19.37
2019-03-20T19:00:36.296Z,18.87
2019-03-20T19:03:09.201Z,20.80
2019-03-20T19:05:41.566Z,19.97
2019-03-20T19:08:13.928Z,20.73
2019-03-20T19:10:46.621Z,21.67
2019-03-20T19:13:19.063Z,20.50
2019-03-20T19:15:51.303Z,20.67
2019-03-20T19:18:23.710Z,21.40
2019-03-20T19:20:56.185Z,21.43
2019-03-20T19:23:28.735Z,25.03
2019-03-20T19:26:01.150Z,24.93
2019-03-20T19:28:33.697Z,26.03
2019-03-20T19:31:06.289Z,27.30
2019-03-20T19:33:38.854Z,26.57
2019-03-20T19:36:11.619Z,25.33
2019-03-20T19:38:44.040Z,24.67
2019-03-20T19:41:17.106Z,25.50
2019-03-20T19:43:49.501Z,26.20
2019-03-20T19:46:22.201Z,25.67
2019-03-20T19:48:54.669Z,25.20
2019-03-20T19:51:27.921Z,24.07
2019-03-20T19:54:00.504Z,22.93
2019-03-20T19:56:33.211Z,24.70
2019-03-20T19:59:05.469Z,21.80
2019-03-20T20:01:37.999Z,23.30
2019-03-20T20:04:10.266Z,21.60
2019-03-20T20:06:42.587Z,24.13
2019-03-20T20:09:15.227Z,24.70
2019-03-20T20:11:47.895Z,21.07
2019-03-20T20:14:20.374Z,23.27
2019-03-20T20:16:52.780Z,24.53
2019-03-20T20:19:25.060Z,21.93
2019-03-20T20:21:57.306Z,22.93
2019-03-20T20:24:29.685Z,22.03
2019-03-20T20:27:01.977Z,20.47
2019-03-20T20:29:34.354Z,22.43
2019-03-20T20:32:06.725Z,22.57
2019-03-20T20:34:40.098Z,21.90
2019-03-20T20:37:13.505Z,21.87
2019-03-20T20:39:45.992Z,21.80
2019-03-20T20:42:18.587Z,22.90
2019-03-20T20:44:51.113Z,22.80
2019-03-20T20:47:23.575Z,20.97
2019-03-20T20:49:55.972Z,20.70
2019-03-20T20:52:28.501Z,20.00
2019-03-20T20:55:01.098Z,19.57
2019-03-20T20:57:33.523Z,22.13
2019-03-20T21:00:06.046Z,21.23
2019-03-20T21:02:38.447Z,21.53
2019-03-20T21:05:11.121Z,22.93
2019-03-20T21:07:43.699Z,22.63
2019-03-20T21:10:15.923Z,21.47
2019-03-20T21:12:56.121Z,22.20
2019-03-20T21:15:22.352Z,22.83
2019-03-20T21:17:54.644Z,21.53
2019-03-20T21:20:27.006Z,23.30
2019-03-20T21:22:59.926Z,24.27
2019-03-20T21:25:32.303Z,26.33
2019-03-20T21:28:04.862Z,26.10
2019-03-20T21:30:37.297Z,27.37
2019-03-20T21:33:09.699Z,26.70
2019-03-20T21:35:42.010Z,28.60
2019-03-20T21:38:14.334Z,30.23
2019-03-20T21:40:46.558Z,32.37
2019-03-20T21:43:18.623Z,30.77
2019-03-20T21:45:51.098Z,32.67
2019-03-20T21:48:23.513Z,34.13
2019-03-20T21:50:55.797Z,35.20
2019-03-20T21:53:28.286Z,34.70
2019-03-20T21:56:00.717Z,37.40
2019-03-20T21:58:32.957Z,36.27
2019-03-20T22:01:05.778Z,37.97
2019-03-20T22:03:38.021Z,35.27
2019-03-20T22:06:10.425Z,35.53
2019-03-20T22:08:43.100Z,39.50
2019-03-20T22:11:15.466Z,38.97
2019-03-20T22:13:47.751Z,40.43
2019-03-20T22:16:20.528Z,40.27
2019-03-20T22:18:53.094Z,39.10
2019-03-20T22:21:25.436Z,40.17
2019-03-20T22:23:57.942Z,38.23
2019-03-20T22:26:30.313Z,35.83
2019-03-20T22:29:02.614Z,36.53
2019-03-20T22:31:34.970Z,35.60
2019-03-20T22:34:07.704Z,34.77
2019-03-20T22:36:40.018Z,34.43
2019-03-20T22:39:12.468Z,34.67
2019-03-20T22:41:44.790Z,32.20
2019-03-20T22:44:17.272Z,29.40
2019-03-20T22:46:50.611Z,31.33
2019-03-20T22:49:23.144Z,32.23
2019-03-20T22:51:55.484Z,30.00
2019-03-20T22:54:27.791Z,30.07
2019-03-20T22:57:00.081Z,28.60
2019-03-20T22:59:32.368Z,28.50
2019-03-20T23:02:04.906Z,29.83
2019-03-20T23:04:37.379Z,29.17
2019-03-20T23:07:10.762Z,28.83
2019-03-20T23:09:43.443Z,27.77
2019-03-20T23:12:17.756Z,26.73
2019-03-20T23:14:49.799Z,26.77
2019-03-20T23:17:22.281Z,27.20
2019-03-20T23:19:54.582Z,27.93
2019-03-20T23:22:26.955Z,27.67
2019-03-20T23:24:59.279Z,28.87
2019-03-20T23:27:31.452Z,28.90
2019-03-20T23:30:03.873Z,27.70
2019-03-20T23:32:36.155Z,28.80
2019-03-20T23:35:08.536Z,28.20
2019-03-20T23:37:40.974Z,30.00
2019-03-20T23:40:13.268Z,27.57
2019-03-20T23:42:45.650Z,29.20
2019-03-20T23:45:18.290Z,27.57
2019-03-20T23:47:50.771Z,29.87
2019-03-20T23:50:23.099Z,28.00
2019-03-20T23:52:55.398Z,28.67
2019-03-20T23:55:27.759Z,27.87
2019-03-20T23:58:00.132Z,28.43
